sensor_id;sensor_type;location;lat;lon;timestamp;P1;durP1;ratioP1;P2;durP2;ratioP2
14268;SDS011;7218;51.480;7.006;2024-02-26T00:01:43;2.50;;;1.90;;
14268;SDS011;7218;51.480;7.006;2024-02-26T00:04:11;5.35;;;1.90;;
14268;SDS011;7218;51.480;7.006;2024-02-26T00:06:38;2.65;;;1.60;;
14268;SDS011;7218;51.480;7.006;2024-02-26T00:09:06;4.30;;;1.75;;
14268;SDS011;7218;51.480;7.006;2024-02-26T00:11:32;2.67;;;1.48;;
14268;SDS011;7218;51.480;7.006;2024-02-26T00:13:59;2.63;;;1.65;;
14268;SDS011;7218;51.480;7.006;2024-02-26T00:16:25;1.98;;;1.77;;
14268;SDS011;7218;51.480;7.006;2024-02-26T00:18:52;2.63;;;1.70;;
14268;SDS011;7218;51.480;7.006;2024-02-26T00:21:19;2.45;;;1.55;;
14268;SDS011;7218;51.480;7.006;2024-02-26T00:23:46;2.60;;;1.80;;
14268;SDS011;7218;51.480;7.006;2024-02-26T00:26:12;2.55;;;1.50;;
14268;SDS011;7218;51.480;7.006;2024-02-26T00:28:40;2.10;;;1.40;;
14268;SDS011;7218;51.480;7.006;2024-02-26T00:31:06;1.85;;;1.63;;
14268;SDS011;7218;51.480;7.006;2024-02-26T00:33:33;2.10;;;1.70;;
14268;SDS011;7218;51.480;7.006;2024-02-26T00:35:59;1.67;;;1.38;;
14268;SDS011;7218;51.480;7.006;2024-02-26T00:38:27;3.78;;;1.40;;
14268;SDS011;7218;51.480;7.006;2024-02-26T00:40:53;4.68;;;1.77;;
14268;SDS011;7218;51.480;7.006;2024-02-26T00:43:20;3.13;;;1.42;;
14268;SDS011;7218;51.480;7.006;2024-02-26T00:45:46;1.63;;;1.50;;
14268;SDS011;7218;51.480;7.006;2024-02-26T00:48:13;2.78;;;1.60;;
14268;SDS011;7218;51.480;7.006;2024-02-26T00:50:39;1.65;;;1.40;;
14268;SDS011;7218;51.480;7.006;2024-02-26T00:53:06;3.30;;;1.40;;
14268;SDS011;7218;51.480;7.006;2024-02-26T00:55:35;1.98;;;1.58;;
14268;SDS011;7218;51.480;7.006;2024-02-26T00:58:01;3.38;;;1.80;;
14268;SDS011;7218;51.480;7.006;2024-02-26T01:00:27;2.00;;;1.75;;
14268;SDS011;7218;51.480;7.006;2024-02-26T01:02:54;2.47;;;1.80;;
14268;SDS011;7218;51.480;7.006;2024-02-26T01:05:21;3.97;;;1.80;;
14268;SDS011;7218;51.480;7.006;2024-02-26T01:07:48;1.85;;;1.50;;
14268;SDS011;7218;51.480;7.006;2024-02-26T01:10:14;2.40;;;2.05;;
14268;SDS011;7218;51.480;7.006;2024-02-26T01:12:42;3.00;;;1.90;;
14268;SDS011;7218;51.480;7.006;2024-02-26T01:15:09;2.50;;;1.80;;
14268;SDS011;7218;51.480;7.006;2024-02-26T01:17:35;2.05;;;1.70;;
14268;SDS011;7218;51.480;7.006;2024-02-26T01:20:02;3.42;;;2.00;;
14268;SDS011;7218;51.480;7.006;2024-02-26T01:22:29;3.63;;;2.00;;
14268;SDS011;7218;51.480;7.006;2024-02-26T01:24:56;2.42;;;1.80;;
14268;SDS011;7218;51.480;7.006;2024-02-26T01:27:23;2.50;;;1.95;;
14268;SDS011;7218;51.480;7.006;2024-02-26T01:29:53;2.38;;;1.98;;
14268;SDS011;7218;51.480;7.006;2024-02-26T01:32:19;4.10;;;2.03;;
14268;SDS011;7218;51.480;7.006;2024-02-26T01:34:46;3.38;;;2.00;;
14268;SDS011;7218;51.480;7.006;2024-02-26T01:37:12;2.22;;;1.60;;
14268;SDS011;7218;51.480;7.006;2024-02-26T01:39:38;2.75;;;1.88;;
14268;SDS011;7218;51.480;7.006;2024-02-26T01:42:06;1.95;;;1.80;;
14268;SDS011;7218;51.480;7.006;2024-02-26T01:44:33;3.45;;;1.98;;
14268;SDS011;7218;51.480;7.006;2024-02-26T01:47:00;2.17;;;1.80;;
14268;SDS011;7218;51.480;7.006;2024-02-26T01:49:28;3.63;;;2.00;;
14268;SDS011;7218;51.480;7.006;2024-02-26T01:51:55;2.67;;;1.95;;
14268;SDS011;7218;51.480;7.006;2024-02-26T01:54:22;2.10;;;1.60;;
14268;SDS011;7218;51.480;7.006;2024-02-26T01:56:49;5.22;;;1.92;;
14268;SDS011;7218;51.480;7.006;2024-02-26T01:59:16;1.80;;;1.70;;
14268;SDS011;7218;51.480;7.006;2024-02-26T02:01:44;3.03;;;1.80;;
14268;SDS011;7218;51.480;7.006;2024-02-26T02:04:14;2.92;;;1.83;;
14268;SDS011;7218;51.480;7.006;2024-02-26T02:06:42;2.75;;;1.90;;
14268;SDS011;7218;51.480;7.006;2024-02-26T02:09:11;2.88;;;1.90;;
14268;SDS011;7218;51.480;7.006;2024-02-26T02:11:37;2.00;;;1.80;;
14268;SDS011;7218;51.480;7.006;2024-02-26T02:14:04;2.58;;;1.85;;
14268;SDS011;7218;51.480;7.006;2024-02-26T02:16:30;3.38;;;2.10;;
14268;SDS011;7218;51.480;7.006;2024-02-26T02:18:57;3.00;;;1.80;;
14268;SDS011;7218;51.480;7.006;2024-02-26T02:21:25;2.80;;;1.95;;
14268;SDS011;7218;51.480;7.006;2024-02-26T02:23:52;2.47;;;1.98;;
14268;SDS011;7218;51.480;7.006;2024-02-26T02:26:18;2.17;;;1.80;;
14268;SDS011;7218;51.480;7.006;2024-02-26T02:28:45;2.58;;;1.80;;
14268;SDS011;7218;51.480;7.006;2024-02-26T02:31:12;3.33;;;1.73;;
14268;SDS011;7218;51.480;7.006;2024-02-26T02:33:40;2.38;;;1.80;;
14268;SDS011;7218;51.480;7.006;2024-02-26T02:36:07;3.25;;;2.10;;
14268;SDS011;7218;51.480;7.006;2024-02-26T02:38:36;1.80;;;1.70;;
14268;SDS011;7218;51.480;7.006;2024-02-26T02:41:03;2.08;;;1.67;;
14268;SDS011;7218;51.480;7.006;2024-02-26T02:43:30;1.67;;;1.50;;
14268;SDS011;7218;51.480;7.006;2024-02-26T02:45:56;2.70;;;1.77;;
14268;SDS011;7218;51.480;7.006;2024-02-26T02:48:23;3.20;;;2.00;;
14268;SDS011;7218;51.480;7.006;2024-02-26T02:50:49;2.20;;;1.65;;
14268;SDS011;7218;51.480;7.006;2024-02-26T02:53:16;3.03;;;2.13;;
14268;SDS011;7218;51.480;7.006;2024-02-26T02:55:44;2.03;;;1.67;;
14268;SDS011;7218;51.480;7.006;2024-02-26T02:58:11;1.85;;;1.70;;
14268;SDS011;7218;51.480;7.006;2024-02-26T03:00:37;3.30;;;1.73;;
14268;SDS011;7218;51.480;7.006;2024-02-26T03:03:04;1.98;;;1.70;;
14268;SDS011;7218;51.480;7.006;2024-02-26T03:05:31;3.58;;;1.80;;
14268;SDS011;7218;51.480;7.006;2024-02-26T03:07:57;2.92;;;1.88;;
14268;SDS011;7218;51.480;7.006;2024-02-26T03:10:24;2.75;;;1.60;;
14268;SDS011;7218;51.480;7.006;2024-02-26T03:12:53;1.98;;;1.65;;
14268;SDS011;7218;51.480;7.006;2024-02-26T03:15:19;2.28;;;1.73;;
14268;SDS011;7218;51.480;7.006;2024-02-26T03:17:46;1.80;;;1.50;;
14268;SDS011;7218;51.480;7.006;2024-02-26T03:20:12;3.45;;;1.70;;
14268;SDS011;7218;51.480;7.006;2024-02-26T03:22:39;2.42;;;1.60;;
14268;SDS011;7218;51.480;7.006;2024-02-26T03:25:06;1.75;;;1.63;;
14268;SDS011;7218;51.480;7.006;2024-02-26T03:27:33;2.53;;;1.65;;
14268;SDS011;7218;51.480;7.006;2024-02-26T03:30:01;2.17;;;1.42;;
14268;SDS011;7218;51.480;7.006;2024-02-26T03:32:28;2.17;;;1.70;;
14268;SDS011;7218;51.480;7.006;2024-02-26T03:34:55;2.13;;;1.55;;
14268;SDS011;7218;51.480;7.006;2024-02-26T03:37:21;3.00;;;1.85;;
14268;SDS011;7218;51.480;7.006;2024-02-26T03:39:48;2.40;;;1.67;;
14268;SDS011;7218;51.480;7.006;2024-02-26T03:42:14;4.78;;;1.67;;
14268;SDS011;7218;51.480;7.006;2024-02-26T03:44:41;2.88;;;1.55;;
14268;SDS011;7218;51.480;7.006;2024-02-26T03:47:09;1.70;;;1.50;;
14268;SDS011;7218;51.480;7.006;2024-02-26T03:49:35;2.42;;;1.85;;
14268;SDS011;7218;51.480;7.006;2024-02-26T03:52:02;2.55;;;1.85;;
14268;SDS011;7218;51.480;7.006;2024-02-26T03:54:28;3.40;;;1.75;;
14268;SDS011;7218;51.480;7.006;2024-02-26T03:56:55;2.25;;;1.80;;
14268;SDS011;7218;51.480;7.006;2024-02-26T03:59:21;2.75;;;1.80;;
14268;SDS011;7218;51.480;7.006;2024-02-26T04:01:49;1.95;;;1.77;;
14268;SDS011;7218;51.480;7.006;2024-02-26T04:04:17;1.73;;;1.63;;
14268;SDS011;7218;51.480;7.006;2024-02-26T04:06:44;1.70;;;1.60;;
14268;SDS011;7218;51.480;7.006;2024-02-26T04:09:10;2.25;;;1.80;;
14268;SDS011;7218;51.480;7.006;2024-02-26T04:11:37;2.53;;;1.67;;
14268;SDS011;7218;51.480;7.006;2024-02-26T04:14:03;2.15;;;1.70;;
14268;SDS011;7218;51.480;7.006;2024-02-26T04:16:31;3.03;;;1.70;;
14268;SDS011;7218;51.480;7.006;2024-02-26T04:18:57;2.60;;;1.88;;
14268;SDS011;7218;51.480;7.006;2024-02-26T04:21:25;3.78;;;1.58;;
14268;SDS011;7218;51.480;7.006;2024-02-26T04:23:51;3.28;;;1.83;;
14268;SDS011;7218;51.480;7.006;2024-02-26T04:26:20;2.10;;;1.65;;
14268;SDS011;7218;51.480;7.006;2024-02-26T04:28:46;2.17;;;1.50;;
14268;SDS011;7218;51.480;7.006;2024-02-26T04:31:13;2.17;;;1.67;;
14268;SDS011;7218;51.480;7.006;2024-02-26T04:33:39;1.60;;;1.50;;
14268;SDS011;7218;51.480;7.006;2024-02-26T04:36:11;1.75;;;1.65;;
14268;SDS011;7218;51.480;7.006;2024-02-26T04:38:40;3.20;;;2.10;;
14268;SDS011;7218;51.480;7.006;2024-02-26T04:41:07;5.35;;;1.90;;
14268;SDS011;7218;51.480;7.006;2024-02-26T04:43:33;2.20;;;1.80;;
14268;SDS011;7218;51.480;7.006;2024-02-26T04:45:59;2.20;;;2.00;;
14268;SDS011;7218;51.480;7.006;2024-02-26T04:48:27;4.80;;;1.80;;
14268;SDS011;7218;51.480;7.006;2024-02-26T04:50:54;3.55;;;2.13;;
14268;SDS011;7218;51.480;7.006;2024-02-26T04:53:20;2.45;;;2.20;;
14268;SDS011;7218;51.480;7.006;2024-02-26T04:55:48;2.00;;;1.80;;
14268;SDS011;7218;51.480;7.006;2024-02-26T04:58:14;3.45;;;2.33;;
14268;SDS011;7218;51.480;7.006;2024-02-26T05:00:41;2.75;;;2.00;;
14268;SDS011;7218;51.480;7.006;2024-02-26T05:03:07;3.92;;;2.20;;
14268;SDS011;7218;51.480;7.006;2024-02-26T05:05:38;3.60;;;2.00;;
14268;SDS011;7218;51.480;7.006;2024-02-26T05:08:04;2.40;;;2.00;;
14268;SDS011;7218;51.480;7.006;2024-02-26T05:10:32;3.15;;;2.22;;
14268;SDS011;7218;51.480;7.006;2024-02-26T05:13:00;2.90;;;2.35;;
14268;SDS011;7218;51.480;7.006;2024-02-26T05:15:26;3.88;;;2.15;;
14268;SDS011;7218;51.480;7.006;2024-02-26T05:17:53;4.15;;;2.47;;
14268;SDS011;7218;51.480;7.006;2024-02-26T05:20:19;5.13;;;2.30;;
14268;SDS011;7218;51.480;7.006;2024-02-26T05:22:46;2.50;;;2.30;;
14268;SDS011;7218;51.480;7.006;2024-02-26T05:25:14;3.53;;;2.10;;
14268;SDS011;7218;51.480;7.006;2024-02-26T05:27:41;4.40;;;2.15;;
14268;SDS011;7218;51.480;7.006;2024-02-26T05:30:09;3.17;;;2.10;;
14268;SDS011;7218;51.480;7.006;2024-02-26T05:32:36;2.30;;;2.10;;
14268;SDS011;7218;51.480;7.006;2024-02-26T05:35:03;2.47;;;2.22;;
14268;SDS011;7218;51.480;7.006;2024-02-26T05:37:30;2.28;;;1.90;;
14268;SDS011;7218;51.480;7.006;2024-02-26T05:39:57;2.28;;;2.00;;
14268;SDS011;7218;51.480;7.006;2024-02-26T05:42:24;2.33;;;2.03;;
14268;SDS011;7218;51.480;7.006;2024-02-26T05:44:50;3.63;;;2.20;;
14268;SDS011;7218;51.480;7.006;2024-02-26T05:47:18;2.28;;;2.03;;
14268;SDS011;7218;51.480;7.006;2024-02-26T05:49:45;3.80;;;2.28;;
14268;SDS011;7218;51.480;7.006;2024-02-26T05:52:11;3.90;;;2.17;;
14268;SDS011;7218;51.480;7.006;2024-02-26T05:54:37;2.83;;;2.03;;
14268;SDS011;7218;51.480;7.006;2024-02-26T05:57:04;3.33;;;2.00;;
14268;SDS011;7218;51.480;7.006;2024-02-26T05:59:30;4.65;;;2.60;;
14268;SDS011;7218;51.480;7.006;2024-02-26T06:01:57;3.88;;;2.40;;
14268;SDS011;7218;51.480;7.006;2024-02-26T06:04:25;2.58;;;2.38;;
14268;SDS011;7218;51.480;7.006;2024-02-26T06:06:51;3.35;;;2.47;;
14268;SDS011;7218;51.480;7.006;2024-02-26T06:09:17;2.70;;;2.33;;
14268;SDS011;7218;51.480;7.006;2024-02-26T06:11:44;2.42;;;1.92;;
14268;SDS011;7218;51.480;7.006;2024-02-26T06:14:10;3.70;;;2.20;;
14268;SDS011;7218;51.480;7.006;2024-02-26T06:16:39;5.07;;;2.47;;
14268;SDS011;7218;51.480;7.006;2024-02-26T06:19:05;2.30;;;2.10;;
14268;SDS011;7218;51.480;7.006;2024-02-26T06:21:34;3.17;;;2.33;;
14268;SDS011;7218;51.480;7.006;2024-02-26T06:24:00;2.72;;;2.40;;
14268;SDS011;7218;51.480;7.006;2024-02-26T06:26:27;3.65;;;2.60;;
14268;SDS011;7218;51.480;7.006;2024-02-26T06:28:54;4.28;;;2.83;;
14268;SDS011;7218;51.480;7.006;2024-02-26T06:31:21;3.05;;;2.42;;
14268;SDS011;7218;51.480;7.006;2024-02-26T06:33:47;4.30;;;2.45;;
14268;SDS011;7218;51.480;7.006;2024-02-26T06:36:15;2.70;;;2.50;;
14268;SDS011;7218;51.480;7.006;2024-02-26T06:38:43;3.22;;;2.30;;
14268;SDS011;7218;51.480;7.006;2024-02-26T06:41:09;3.45;;;2.40;;
14268;SDS011;7218;51.480;7.006;2024-02-26T06:43:36;3.15;;;2.38;;
14268;SDS011;7218;51.480;7.006;2024-02-26T06:46:03;3.45;;;2.35;;
14268;SDS011;7218;51.480;7.006;2024-02-26T06:48:29;2.38;;;2.08;;
14268;SDS011;7218;51.480;7.006;2024-02-26T06:50:56;2.72;;;2.28;;
14268;SDS011;7218;51.480;7.006;2024-02-26T06:53:22;2.50;;;2.17;;
14268;SDS011;7218;51.480;7.006;2024-02-26T06:55:50;2.97;;;2.10;;
14268;SDS011;7218;51.480;7.006;2024-02-26T06:58:16;2.55;;;2.13;;
14268;SDS011;7218;51.480;7.006;2024-02-26T07:00:43;4.30;;;2.47;;
14268;SDS011;7218;51.480;7.006;2024-02-26T07:03:09;2.22;;;2.03;;
14268;SDS011;7218;51.480;7.006;2024-02-26T07:05:36;2.75;;;2.30;;
14268;SDS011;7218;51.480;7.006;2024-02-26T07:08:02;2.80;;;2.20;;
14268;SDS011;7218;51.480;7.006;2024-02-26T07:10:29;3.28;;;2.05;;
14268;SDS011;7218;51.480;7.006;2024-02-26T07:12:57;3.47;;;2.28;;
14268;SDS011;7218;51.480;7.006;2024-02-26T07:15:23;3.70;;;2.78;;
14268;SDS011;7218;51.480;7.006;2024-02-26T07:17:50;3.08;;;2.22;;
14268;SDS011;7218;51.480;7.006;2024-02-26T07:20:16;2.97;;;2.45;;
14268;SDS011;7218;51.480;7.006;2024-02-26T07:22:43;3.00;;;2.20;;
14268;SDS011;7218;51.480;7.006;2024-02-26T07:25:09;2.92;;;2.63;;
14268;SDS011;7218;51.480;7.006;2024-02-26T07:27:38;2.88;;;2.28;;
14268;SDS011;7218;51.480;7.006;2024-02-26T07:30:06;3.13;;;2.20;;
14268;SDS011;7218;51.480;7.006;2024-02-26T07:32:34;2.53;;;2.10;;
14268;SDS011;7218;51.480;7.006;2024-02-26T07:35:00;3.15;;;2.67;;
14268;SDS011;7218;51.480;7.006;2024-02-26T07:37:27;3.85;;;2.53;;
14268;SDS011;7218;51.480;7.006;2024-02-26T07:39:53;2.72;;;2.38;;
14268;SDS011;7218;51.480;7.006;2024-02-26T07:42:20;3.92;;;2.70;;
14268;SDS011;7218;51.480;7.006;2024-02-26T07:44:46;2.65;;;2.33;;
14268;SDS011;7218;51.480;7.006;2024-02-26T07:47:14;2.47;;;2.28;;
14268;SDS011;7218;51.480;7.006;2024-02-26T07:49:41;2.80;;;2.38;;
14268;SDS011;7218;51.480;7.006;2024-02-26T07:52:07;3.42;;;2.20;;
14268;SDS011;7218;51.480;7.006;2024-02-26T07:54:33;2.60;;;2.40;;
14268;SDS011;7218;51.480;7.006;2024-02-26T07:57:00;3.40;;;2.47;;
14268;SDS011;7218;51.480;7.006;2024-02-26T07:59:30;4.60;;;2.85;;
14268;SDS011;7218;51.480;7.006;2024-02-26T08:01:56;2.63;;;2.42;;
14268;SDS011;7218;51.480;7.006;2024-02-26T08:04:24;3.42;;;2.88;;
14268;SDS011;7218;51.480;7.006;2024-02-26T08:06:51;3.78;;;2.95;;
14268;SDS011;7218;51.480;7.006;2024-02-26T08:09:18;4.65;;;2.63;;
14268;SDS011;7218;51.480;7.006;2024-02-26T08:11:44;5.20;;;3.35;;
14268;SDS011;7218;51.480;7.006;2024-02-26T08:14:10;5.95;;;2.95;;
14268;SDS011;7218;51.480;7.006;2024-02-26T08:16:37;3.55;;;2.90;;
14268;SDS011;7218;51.480;7.006;2024-02-26T08:19:03;3.38;;;2.95;;
14268;SDS011;7218;51.480;7.006;2024-02-26T08:21:31;3.97;;;2.80;;
14268;SDS011;7218;51.480;7.006;2024-02-26T08:23:58;3.17;;;2.72;;
14268;SDS011;7218;51.480;7.006;2024-02-26T08:26:24;4.07;;;3.10;;
14268;SDS011;7218;51.480;7.006;2024-02-26T08:28:51;5.63;;;3.22;;
14268;SDS011;7218;51.480;7.006;2024-02-26T08:31:19;3.40;;;2.88;;
14268;SDS011;7218;51.480;7.006;2024-02-26T08:33:45;4.78;;;2.75;;
14268;SDS011;7218;51.480;7.006;2024-02-26T08:36:12;4.00;;;3.28;;
14268;SDS011;7218;51.480;7.006;2024-02-26T08:38:40;4.18;;;3.10;;
14268;SDS011;7218;51.480;7.006;2024-02-26T08:41:06;3.75;;;2.75;;
14268;SDS011;7218;51.480;7.006;2024-02-26T08:43:33;4.72;;;2.92;;
14268;SDS011;7218;51.480;7.006;2024-02-26T08:45:59;4.03;;;3.05;;
14268;SDS011;7218;51.480;7.006;2024-02-26T08:48:26;3.38;;;2.72;;
14268;SDS011;7218;51.480;7.006;2024-02-26T08:50:52;3.05;;;2.75;;
14268;SDS011;7218;51.480;7.006;2024-02-26T08:53:17;4.20;;;2.83;;
14268;SDS011;7218;51.480;7.006;2024-02-26T08:55:45;5.63;;;2.85;;
14268;SDS011;7218;51.480;7.006;2024-02-26T08:58:12;5.10;;;3.17;;
14268;SDS011;7218;51.480;7.006;2024-02-26T09:00:38;5.25;;;3.40;;
14268;SDS011;7218;51.480;7.006;2024-02-26T09:03:05;4.35;;;3.22;;
14268;SDS011;7218;51.480;7.006;2024-02-26T09:05:31;4.07;;;2.70;;
14268;SDS011;7218;51.480;7.006;2024-02-26T09:07:57;4.68;;;2.97;;
14268;SDS011;7218;51.480;7.006;2024-02-26T09:10:24;4.75;;;2.90;;
14268;SDS011;7218;51.480;7.006;2024-02-26T09:12:52;4.57;;;3.03;;
14268;SDS011;7218;51.480;7.006;2024-02-26T09:15:20;4.30;;;3.10;;
14268;SDS011;7218;51.480;7.006;2024-02-26T09:17:46;5.13;;;3.08;;
14268;SDS011;7218;51.480;7.006;2024-02-26T09:20:15;3.67;;;2.95;;
14268;SDS011;7218;51.480;7.006;2024-02-26T09:22:45;4.22;;;3.25;;
14268;SDS011;7218;51.480;7.006;2024-02-26T09:25:11;3.30;;;3.00;;
14268;SDS011;7218;51.480;7.006;2024-02-26T09:27:38;4.05;;;3.00;;
14268;SDS011;7218;51.480;7.006;2024-02-26T09:30:06;4.70;;;3.20;;
14268;SDS011;7218;51.480;7.006;2024-02-26T09:32:33;4.40;;;3.22;;
14268;SDS011;7218;51.480;7.006;2024-02-26T09:35:00;4.88;;;3.60;;
14268;SDS011;7218;51.480;7.006;2024-02-26T09:37:26;3.97;;;3.13;;
14268;SDS011;7218;51.480;7.006;2024-02-26T09:39:53;4.53;;;3.10;;
14268;SDS011;7218;51.480;7.006;2024-02-26T09:42:19;4.15;;;3.10;;
14268;SDS011;7218;51.480;7.006;2024-02-26T09:44:45;5.30;;;3.20;;
14268;SDS011;7218;51.480;7.006;2024-02-26T09:47:18;3.85;;;3.15;;
14268;SDS011;7218;51.480;7.006;2024-02-26T09:49:45;3.90;;;3.00;;
14268;SDS011;7218;51.480;7.006;2024-02-26T09:52:13;4.43;;;2.80;;
14268;SDS011;7218;51.480;7.006;2024-02-26T09:54:41;4.75;;;3.10;;
14268;SDS011;7218;51.480;7.006;2024-02-26T09:57:09;4.20;;;2.75;;
14268;SDS011;7218;51.480;7.006;2024-02-26T09:59:40;4.30;;;3.10;;
14268;SDS011;7218;51.480;7.006;2024-02-26T10:02:08;6.70;;;3.13;;
14268;SDS011;7218;51.480;7.006;2024-02-26T10:04:39;3.83;;;2.83;;
14268;SDS011;7218;51.480;7.006;2024-02-26T10:07:06;7.47;;;3.20;;
14268;SDS011;7218;51.480;7.006;2024-02-26T10:09:36;5.95;;;3.90;;
14268;SDS011;7218;51.480;7.006;2024-02-26T10:12:03;3.33;;;3.03;;
14268;SDS011;7218;51.480;7.006;2024-02-26T10:14:31;3.90;;;3.28;;
14268;SDS011;7218;51.480;7.006;2024-02-26T10:16:57;5.70;;;3.38;;
14268;SDS011;7218;51.480;7.006;2024-02-26T10:19:26;5.80;;;3.42;;
14268;SDS011;7218;51.480;7.006;2024-02-26T10:21:57;5.57;;;3.45;;
14268;SDS011;7218;51.480;7.006;2024-02-26T10:24:25;5.53;;;3.13;;
14268;SDS011;7218;51.480;7.006;2024-02-26T10:26:52;4.55;;;3.13;;
14268;SDS011;7218;51.480;7.006;2024-02-26T10:29:20;5.45;;;3.20;;
14268;SDS011;7218;51.480;7.006;2024-02-26T10:31:48;4.32;;;3.20;;
14268;SDS011;7218;51.480;7.006;2024-02-26T10:34:14;3.75;;;3.05;;
14268;SDS011;7218;51.480;7.006;2024-02-26T10:36:41;3.92;;;3.28;;
14268;SDS011;7218;51.480;7.006;2024-02-26T10:39:11;5.93;;;3.20;;
14268;SDS011;7218;51.480;7.006;2024-02-26T10:41:39;5.45;;;3.50;;
14268;SDS011;7218;51.480;7.006;2024-02-26T10:44:07;4.32;;;3.38;;
14268;SDS011;7218;51.480;7.006;2024-02-26T10:46:35;3.65;;;3.30;;
14268;SDS011;7218;51.480;7.006;2024-02-26T10:49:03;5.60;;;3.28;;
14268;SDS011;7218;51.480;7.006;2024-02-26T10:51:31;4.15;;;3.30;;
14268;SDS011;7218;51.480;7.006;2024-02-26T10:54:01;4.00;;;3.40;;
14268;SDS011;7218;51.480;7.006;2024-02-26T10:56:34;4.10;;;3.25;;
14268;SDS011;7218;51.480;7.006;2024-02-26T10:59:02;4.95;;;4.05;;
14268;SDS011;7218;51.480;7.006;2024-02-26T11:01:31;5.38;;;3.35;;
14268;SDS011;7218;51.480;7.006;2024-02-26T11:03:58;6.03;;;3.65;;
14268;SDS011;7218;51.480;7.006;2024-02-26T11:06:26;3.83;;;3.30;;
14268;SDS011;7218;51.480;7.006;2024-02-26T11:08:54;4.28;;;3.60;;
14268;SDS011;7218;51.480;7.006;2024-02-26T11:11:22;3.30;;;3.00;;
14268;SDS011;7218;51.480;7.006;2024-02-26T11:13:51;5.47;;;3.42;;
14268;SDS011;7218;51.480;7.006;2024-02-26T11:16:21;5.15;;;3.40;;
14268;SDS011;7218;51.480;7.006;2024-02-26T11:18:48;3.50;;;3.20;;
14268;SDS011;7218;51.480;7.006;2024-02-26T11:21:15;4.93;;;3.40;;
14268;SDS011;7218;51.480;7.006;2024-02-26T11:23:43;4.70;;;3.40;;
14268;SDS011;7218;51.480;7.006;2024-02-26T11:26:11;6.07;;;3.58;;
14268;SDS011;7218;51.480;7.006;2024-02-26T11:28:41;5.30;;;3.72;;
14268;SDS011;7218;51.480;7.006;2024-02-26T11:31:10;4.80;;;3.67;;
14268;SDS011;7218;51.480;7.006;2024-02-26T11:33:38;6.15;;;3.90;;
14268;SDS011;7218;51.480;7.006;2024-02-26T11:36:07;4.18;;;3.70;;
14268;SDS011;7218;51.480;7.006;2024-02-26T11:38:35;4.40;;;3.58;;
14268;SDS011;7218;51.480;7.006;2024-02-26T11:41:02;5.03;;;3.63;;
14268;SDS011;7218;51.480;7.006;2024-02-26T11:46:28;4.80;;;4.00;;
14268;SDS011;7218;51.480;7.006;2024-02-26T11:48:56;6.18;;;4.25;;
14268;SDS011;7218;51.480;7.006;2024-02-26T11:51:25;4.93;;;4.22;;
14268;SDS011;7218;51.480;7.006;2024-02-26T11:53:52;6.40;;;4.47;;
14268;SDS011;7218;51.480;7.006;2024-02-26T11:56:22;6.13;;;4.38;;
14268;SDS011;7218;51.480;7.006;2024-02-26T11:58:53;5.35;;;4.50;;
14268;SDS011;7218;51.480;7.006;2024-02-26T12:01:40;5.93;;;4.82;;
14268;SDS011;7218;51.480;7.006;2024-02-26T12:04:11;7.07;;;4.90;;
14268;SDS011;7218;51.480;7.006;2024-02-26T12:06:41;5.70;;;4.47;;
14268;SDS011;7218;51.480;7.006;2024-02-26T12:09:08;7.35;;;4.85;;
14268;SDS011;7218;51.480;7.006;2024-02-26T12:11:37;8.70;;;5.25;;
14268;SDS011;7218;51.480;7.006;2024-02-26T12:14:05;8.48;;;4.93;;
14268;SDS011;7218;51.480;7.006;2024-02-26T12:16:36;7.05;;;5.10;;
14268;SDS011;7218;51.480;7.006;2024-02-26T12:19:06;5.75;;;4.63;;
14268;SDS011;7218;51.480;7.006;2024-02-26T12:21:34;6.82;;;4.47;;
14268;SDS011;7218;51.480;7.006;2024-02-26T12:24:09;8.00;;;5.15;;
14268;SDS011;7218;51.480;7.006;2024-02-26T12:26:37;6.28;;;4.95;;
14268;SDS011;7218;51.480;7.006;2024-02-26T12:29:04;5.28;;;4.60;;
14268;SDS011;7218;51.480;7.006;2024-02-26T12:31:31;7.07;;;5.03;;
14268;SDS011;7218;51.480;7.006;2024-02-26T12:33:58;6.50;;;4.78;;
14268;SDS011;7218;51.480;7.006;2024-02-26T12:36:26;6.47;;;5.30;;
14268;SDS011;7218;51.480;7.006;2024-02-26T12:38:53;6.15;;;4.60;;
14268;SDS011;7218;51.480;7.006;2024-02-26T12:41:20;7.53;;;5.22;;
14268;SDS011;7218;51.480;7.006;2024-02-26T12:43:46;9.50;;;5.15;;
14268;SDS011;7218;51.480;7.006;2024-02-26T12:46:12;6.50;;;5.10;;
14268;SDS011;7218;51.480;7.006;2024-02-26T12:48:41;5.30;;;4.43;;
14268;SDS011;7218;51.480;7.006;2024-02-26T12:51:09;5.40;;;4.57;;
14268;SDS011;7218;51.480;7.006;2024-02-26T12:53:38;5.30;;;4.60;;
14268;SDS011;7218;51.480;7.006;2024-02-26T12:56:05;5.43;;;4.30;;
14268;SDS011;7218;51.480;7.006;2024-02-26T12:58:34;5.65;;;4.50;;
14268;SDS011;7218;51.480;7.006;2024-02-26T13:01:03;8.23;;;4.32;;
14268;SDS011;7218;51.480;7.006;2024-02-26T13:03:30;6.78;;;4.22;;
14268;SDS011;7218;51.480;7.006;2024-02-26T13:05:57;4.85;;;4.18;;
14268;SDS011;7218;51.480;7.006;2024-02-26T13:08:24;5.57;;;3.70;;
14268;SDS011;7218;51.480;7.006;2024-02-26T13:10:52;4.88;;;3.72;;
14268;SDS011;7218;51.480;7.006;2024-02-26T13:13:19;5.45;;;3.97;;
14268;SDS011;7218;51.480;7.006;2024-02-26T13:15:46;4.47;;;3.72;;
14268;SDS011;7218;51.480;7.006;2024-02-26T13:18:13;4.40;;;3.67;;
14268;SDS011;7218;51.480;7.006;2024-02-26T13:20:41;17.60;;;3.75;;
14268;SDS011;7218;51.480;7.006;2024-02-26T13:23:08;4.95;;;3.88;;
14268;SDS011;7218;51.480;7.006;2024-02-26T13:25:37;5.95;;;3.92;;
14268;SDS011;7218;51.480;7.006;2024-02-26T13:28:07;5.45;;;3.75;;
14268;SDS011;7218;51.480;7.006;2024-02-26T13:30:35;4.10;;;3.30;;
14268;SDS011;7218;51.480;7.006;2024-02-26T13:33:07;4.25;;;3.85;;
14268;SDS011;7218;51.480;7.006;2024-02-26T13:35:34;3.92;;;3.35;;
14268;SDS011;7218;51.480;7.006;2024-02-26T13:38:01;3.70;;;3.30;;
14268;SDS011;7218;51.480;7.006;2024-02-26T13:40:28;4.10;;;3.20;;
14268;SDS011;7218;51.480;7.006;2024-02-26T13:42:55;3.97;;;3.33;;
14268;SDS011;7218;51.480;7.006;2024-02-26T13:45:23;3.30;;;2.90;;
14268;SDS011;7218;51.480;7.006;2024-02-26T13:47:50;4.90;;;3.08;;
14268;SDS011;7218;51.480;7.006;2024-02-26T13:50:16;3.33;;;3.00;;
14268;SDS011;7218;51.480;7.006;2024-02-26T13:52:46;4.47;;;3.42;;
14268;SDS011;7218;51.480;7.006;2024-02-26T13:55:12;3.70;;;3.13;;
14268;SDS011;7218;51.480;7.006;2024-02-26T13:57:39;4.95;;;3.15;;
14268;SDS011;7218;51.480;7.006;2024-02-26T14:00:07;4.47;;;2.92;;
14268;SDS011;7218;51.480;7.006;2024-02-26T14:02:37;3.78;;;3.17;;
14268;SDS011;7218;51.480;7.006;2024-02-26T14:05:03;4.38;;;2.85;;
14268;SDS011;7218;51.480;7.006;2024-02-26T14:07:30;4.22;;;3.22;;
14268;SDS011;7218;51.480;7.006;2024-02-26T14:09:57;4.05;;;2.95;;
14268;SDS011;7218;51.480;7.006;2024-02-26T14:12:24;4.30;;;3.25;;
14268;SDS011;7218;51.480;7.006;2024-02-26T14:14:50;3.85;;;2.92;;
14268;SDS011;7218;51.480;7.006;2024-02-26T14:17:18;4.55;;;3.33;;
14268;SDS011;7218;51.480;7.006;2024-02-26T14:19:46;4.22;;;3.25;;
14268;SDS011;7218;51.480;7.006;2024-02-26T14:22:13;4.65;;;3.15;;
14268;SDS011;7218;51.480;7.006;2024-02-26T14:24:41;3.83;;;3.22;;
14268;SDS011;7218;51.480;7.006;2024-02-26T14:27:08;5.20;;;3.22;;
14268;SDS011;7218;51.480;7.006;2024-02-26T14:29:37;3.65;;;3.20;;
14268;SDS011;7218;51.480;7.006;2024-02-26T14:32:05;4.78;;;3.05;;
14268;SDS011;7218;51.480;7.006;2024-02-26T14:34:31;4.43;;;3.40;;
14268;SDS011;7218;51.480;7.006;2024-02-26T14:36:59;4.75;;;3.20;;
14268;SDS011;7218;51.480;7.006;2024-02-26T14:39:25;4.63;;;3.47;;
14268;SDS011;7218;51.480;7.006;2024-02-26T14:41:52;4.55;;;3.20;;
14268;SDS011;7218;51.480;7.006;2024-02-26T14:44:19;4.85;;;3.40;;
14268;SDS011;7218;51.480;7.006;2024-02-26T14:46:45;3.65;;;3.33;;
14268;SDS011;7218;51.480;7.006;2024-02-26T14:49:11;4.32;;;3.15;;
14268;SDS011;7218;51.480;7.006;2024-02-26T14:51:38;3.42;;;3.10;;
14268;SDS011;7218;51.480;7.006;2024-02-26T14:54:06;4.65;;;3.45;;
14268;SDS011;7218;51.480;7.006;2024-02-26T14:56:32;3.97;;;3.10;;
14268;SDS011;7218;51.480;7.006;2024-02-26T14:58:58;5.50;;;3.20;;
14268;SDS011;7218;51.480;7.006;2024-02-26T15:01:25;3.60;;;2.90;;
14268;SDS011;7218;51.480;7.006;2024-02-26T15:03:51;4.25;;;3.03;;